Time;durP1;ratioP1;P1;durP2;ratioP2;P2;SDS_P1;SDS_P2;PMS_P1;PMS_P2;Temp;Humidity;BMP_temperature;BMP_pressure;BME280_temperature;BME280_humidity;BME280_pressure;Samples;Min_cycle;Max_cycle;Signal;HPM_P1;HPM_P2
2021/05/29 00:00:10;;;;;;;3.50;3.20;;;15.50;69.20;;;;;;4990215;28;20222;-92
2021/05/29 00:02:36;;;;;;;3.87;3.53;;;15.50;69.30;;;;;;5018370;28;20178;-93
2021/05/29 00:05:05;;;;;;;4.10;3.70;;;15.50;69.30;;;;;;5013893;28;20186;-90
2021/05/29 00:07:32;;;;;;;4.40;3.90;;;15.50;69.60;;;;;;4988975;28;20197;-90
2021/05/29 00:09:58;;;;;;;3.80;3.37;;;15.40;70.00;;;;;;5011377;28;20183;-94
2021/05/29 00:12:24;;;;;;;4.27;3.97;;;15.30;70.70;;;;;;5018547;28;20189;-94
2021/05/29 00:14:50;;;;;;;3.50;3.20;;;15.10;71.40;;;;;;5015546;28;20178;-90
2021/05/29 00:17:18;;;;;;;3.80;3.50;;;15.10;70.90;;;;;;4988036;28;20257;-90
2021/05/29 00:19:44;;;;;;;3.87;3.53;;;15.10;70.50;;;;;;4987429;28;20243;-92
2021/05/29 00:22:10;;;;;;;4.50;3.70;;;15.20;71.30;;;;;;5005263;28;20261;-91
2021/05/29 00:24:36;;;;;;;4.00;3.70;;;15.30;70.90;;;;;;5003773;28;20191;-92
2021/05/29 00:27:02;;;;;;;3.87;3.40;;;15.40;69.80;;;;;;4987771;28;20182;-90
2021/05/29 00:29:27;;;;;;;5.80;3.67;;;15.60;68.00;;;;;;4987960;28;20190;-90
2021/05/29 00:31:53;;;;;;;3.63;3.27;;;15.70;68.50;;;;;;5005522;28;20198;-91
2021/05/29 00:34:19;;;;;;;4.07;3.67;;;15.60;69.20;;;;;;5004423;28;20195;-92
2021/05/29 00:36:44;;;;;;;3.93;3.63;;;15.40;70.10;;;;;;5004402;28;20268;-90
2021/05/29 00:39:10;;;;;;;4.40;3.73;;;15.00;71.50;;;;;;4987567;28;20190;-91
2021/05/29 00:41:36;;;;;;;4.33;3.47;;;15.00;72.30;;;;;;5005604;28;20249;-91
2021/05/29 00:44:02;;;;;;;4.03;3.73;;;14.90;72.30;;;;;;4989730;28;20201;-91
2021/05/29 00:46:28;;;;;;;3.87;3.50;;;14.90;71.20;;;;;;5005598;28;20170;-91
2021/05/29 00:48:54;;;;;;;5.47;4.00;;;15.00;70.80;;;;;;5004148;28;20185;-91
2021/05/29 00:51:19;;;;;;;4.10;3.80;;;15.00;71.20;;;;;;5001231;28;20218;-91
2021/05/29 00:53:47;;;;;;;4.10;3.80;;;14.80;71.80;;;;;;4983470;28;20628;-91
2021/05/29 00:56:13;;;;;;;4.60;4.20;;;14.70;72.00;;;;;;5000995;28;20184;-91
2021/05/29 00:58:41;;;;;;;3.73;3.43;;;14.70;71.40;;;;;;5000863;28;20190;-92
2021/05/29 01:01:07;;;;;;;3.37;3.07;;;14.70;71.10;;;;;;5000088;28;20225;-92
2021/05/29 01:03:36;;;;;;;4.83;3.70;;;14.70;69.90;;;;;;5001069;28;20206;-91
2021/05/29 01:06:03;;;;;;;3.73;3.43;;;14.80;69.00;;;;;;4983347;28;20182;-91
2021/05/29 01:08:29;;;;;;;4.13;3.73;;;14.80;68.90;;;;;;5001459;28;20217;-91
2021/05/29 01:10:55;;;;;;;5.07;3.70;;;14.70;68.50;;;;;;5000588;28;20215;-91
2021/05/29 01:13:27;;;;;;;5.17;3.20;;;14.70;68.50;;;;;;4984575;28;20181;-91
2021/05/29 01:15:55;;;;;;;5.47;3.53;;;14.60;68.10;;;;;;5002514;28;20158;-91
2021/05/29 01:18:21;;;;;;;4.17;3.80;;;14.60;68.90;;;;;;5004075;28;20696;-92
2021/05/29 01:20:47;;;;;;;4.07;3.50;;;14.70;68.60;;;;;;5003850;28;20210;-92
2021/05/29 01:23:15;;;;;;;5.37;3.57;;;14.60;67.90;;;;;;4986163;28;20636;-92
2021/05/29 01:25:46;;;;;;;3.57;3.27;;;14.70;67.60;;;;;;5003724;28;20175;-91
2021/05/29 01:28:23;;;;;;;4.33;3.93;;;14.70;67.60;;;;;;5003575;28;20222;-91
2021/05/29 01:31:02;;;;;;;4.00;3.57;;;14.80;67.00;;;;;;4985898;28;20214;-92
2021/05/29 01:33:37;;;;;;;4.00;3.63;;;14.80;66.00;;;;;;5001893;28;20184;-92
2021/05/29 01:36:09;;;;;;;6.67;4.43;;;14.80;66.30;;;;;;4987806;28;20182;-91
2021/05/29 01:38:36;;;;;;;3.83;3.47;;;14.70;67.10;;;;;;5005598;28;20192;-91
2021/05/29 01:41:07;;;;;;;4.83;3.87;;;14.80;67.20;;;;;;5005589;28;20220;-91
2021/05/29 01:43:42;;;;;;;3.60;3.27;;;14.90;66.80;;;;;;5003965;28;20170;-91
2021/05/29 01:46:09;;;;;;;3.83;3.53;;;14.90;66.30;;;;;;4986967;28;20188;-91
2021/05/29 01:48:42;;;;;;;3.70;3.40;;;15.00;66.80;;;;;;4987205;28;20585;-92
2021/05/29 01:51:10;;;;;;;3.70;3.40;;;15.00;66.40;;;;;;5002683;28;20253;-91
2021/05/29 01:53:36;;;;;;;3.40;3.00;;;15.00;66.50;;;;;;5003060;28;20189;-91
2021/05/29 01:56:03;;;;;;;4.67;3.10;;;15.10;66.80;;;;;;4986857;28;20268;-91
2021/05/29 01:58:29;;;;;;;3.40;3.10;;;15.00;65.60;;;;;;4986938;28;20207;-90
2021/05/29 02:00:55;;;;;;;4.13;3.33;;;14.90;66.10;;;;;;5003529;28;20214;-91
2021/05/29 02:03:21;;;;;;;3.40;3.10;;;14.90;66.40;;;;;;5008027;28;20260;-91
2021/05/29 02:05:47;;;;;;;3.73;3.43;;;15.00;66.50;;;;;;5007595;28;20182;-91
2021/05/29 02:08:13;;;;;;;3.90;3.57;;;15.10;65.80;;;;;;5007970;28;20174;-91
2021/05/29 02:10:42;;;;;;;3.50;3.20;;;15.20;66.10;;;;;;4989623;28;20213;-91
2021/05/29 02:13:20;;;;;;;4.10;3.80;;;15.30;66.70;;;;;;4990442;28;20268;-91
2021/05/29 02:15:47;;;;;;;6.23;3.30;;;15.40;64.30;;;;;;4990276;28;20190;-91
2021/05/29 02:18:12;;;;;;;4.30;3.33;;;15.40;64.60;;;;;;5005884;28;20281;-91
2021/05/29 02:20:53;;;;;;;3.80;3.50;;;15.40;64.70;;;;;;4989970;28;20252;-91
2021/05/29 02:23:23;;;;;;;4.00;3.70;;;15.20;65.50;;;;;;5006152;28;20182;-91
2021/05/29 02:25:49;;;;;;;4.23;3.63;;;14.90;67.20;;;;;;5005782;28;20183;-91
2021/05/29 02:28:17;;;;;;;4.80;4.07;;;14.80;67.70;;;;;;5007932;28;20254;-91
2021/05/29 02:30:43;;;;;;;5.53;3.43;;;14.70;68.20;;;;;;4989894;28;20210;-91
2021/05/29 02:33:09;;;;;;;4.50;4.03;;;14.70;68.60;;;;;;4973426;28;20639;-91
2021/05/29 02:35:36;;;;;;;5.90;3.90;;;14.90;67.70;;;;;;4988166;28;20195;-91
2021/05/29 02:38:02;;;;;;;4.70;3.57;;;14.80;67.30;;;;;;4986738;28;20248;-91
2021/05/29 02:40:28;;;;;;;4.67;3.47;;;14.70;68.00;;;;;;4970394;28;20223;-91
2021/05/29 02:42:54;;;;;;;4.03;3.63;;;14.70;68.90;;;;;;4988354;28;20194;-91
2021/05/29 02:45:20;;;;;;;4.17;3.70;;;14.50;69.30;;;;;;4987543;28;20252;-90
2021/05/29 02:47:45;;;;;;;3.87;3.50;;;14.40;69.90;;;;;;4970611;28;20191;-91
2021/05/29 02:50:13;;;;;;;4.00;3.60;;;14.40;69.60;;;;;;4996661;28;20238;-91
2021/05/29 02:52:39;;;;;;;3.90;3.53;;;14.50;69.00;;;;;;5004049;28;20199;-91
2021/05/29 02:55:06;;;;;;;3.30;3.10;;;14.50;69.00;;;;;;4991245;28;20178;-91
2021/05/29 02:57:32;;;;;;;4.03;3.73;;;14.40;68.70;;;;;;4990287;28;20186;-91
2021/05/29 02:59:58;;;;;;;5.93;3.60;;;14.50;68.20;;;;;;5018576;28;20233;-91
2021/05/29 03:02:24;;;;;;;3.53;3.23;;;14.40;68.50;;;;;;5020395;28;20182;-91
2021/05/29 03:04:50;;;;;;;4.50;3.40;;;14.40;68.60;;;;;;5010716;28;20191;-91
2021/05/29 03:07:16;;;;;;;3.93;3.53;;;14.40;68.30;;;;;;5005372;28;20324;-90
2021/05/29 03:09:58;;;;;;;3.77;3.33;;;14.50;67.90;;;;;;5006943;28;20701;-91
2021/05/29 03:12:24;;;;;;;3.63;3.33;;;14.60;68.00;;;;;;5008433;28;20237;-91
2021/05/29 03:14:50;;;;;;;3.27;2.97;;;14.70;67.80;;;;;;5007912;28;20280;-91
2021/05/29 03:17:15;;;;;;;3.30;3.10;;;14.80;67.10;;;;;;5006581;28;20197;-91
2021/05/29 03:19:41;;;;;;;5.53;3.50;;;14.60;67.40;;;;;;4989043;28;20285;-91
2021/05/29 03:22:07;;;;;;;3.57;3.27;;;14.60;67.60;;;;;;4974860;28;20565;-91
2021/05/29 03:28:03;;;;;;;3.80;3.50;;;14.20;69.90;;;;;;4953068;28;20193;-91
2021/05/29 03:30:31;;;;;;;3.40;3.13;;;14.20;70.60;;;;;;4969297;28;20217;-91
2021/05/29 03:32:58;;;;;;;4.60;3.20;;;14.20;71.20;;;;;;4986805;28;20238;-91
2021/05/29 03:35:24;;;;;;;3.70;3.40;;;14.20;70.40;;;;;;4986110;28;20209;-91
2021/05/29 03:37:50;;;;;;;4.37;3.20;;;14.00;72.20;;;;;;4968464;28;20198;-91
2021/05/29 03:40:16;;;;;;;3.90;3.60;;;13.90;72.30;;;;;;4985407;28;20223;-91
2021/05/29 03:42:43;;;;;;;4.93;3.70;;;13.60;73.50;;;;;;4984813;28;20549;-92
2021/05/29 03:45:12;;;;;;;3.70;3.40;;;13.50;73.50;;;;;;4985979;28;20183;-91
2021/05/29 03:47:42;;;;;;;3.73;3.43;;;13.50;74.00;;;;;;4986249;28;20175;-91
2021/05/29 03:50:10;;;;;;;3.63;3.33;;;13.50;73.60;;;;;;4968240;28;20210;-91
2021/05/29 03:52:36;;;;;;;4.80;3.60;;;13.70;72.60;;;;;;4968050;28;20203;-92
2021/05/29 03:55:03;;;;;;;3.70;3.40;;;13.80;71.60;;;;;;4985652;28;20198;-91
2021/05/29 03:57:29;;;;;;;3.60;3.30;;;13.80;71.80;;;;;;4985532;28;20174;-91
2021/05/29 03:59:55;;;;;;;3.40;3.10;;;13.90;71.20;;;;;;4967439;28;20225;-91
2021/05/29 04:02:21;;;;;;;3.90;3.50;;;13.70;71.60;;;;;;4985487;28;20192;-90
2021/05/29 04:04:47;;;;;;;3.30;3.00;;;13.70;72.70;;;;;;4968265;28;20705;-91
2021/05/29 04:07:12;;;;;;;3.53;3.23;;;13.70;71.30;;;;;;4983332;28;20286;-91
2021/05/29 04:09:38;;;;;;;3.60;3.30;;;13.70;70.60;;;;;;4986514;28;20186;-91
2021/05/29 04:12:04;;;;;;;3.10;2.90;;;13.70;70.90;;;;;;4967409;28;20716;-91
2021/05/29 04:14:30;;;;;;;3.40;3.10;;;13.80;70.20;;;;;;4968876;28;20222;-91
2021/05/29 04:16:56;;;;;;;2.90;2.67;;;13.90;69.50;;;;;;4985284;28;20191;-91
2021/05/29 04:19:21;;;;;;;3.67;3.33;;;13.90;69.50;;;;;;4985697;28;20262;-91
2021/05/29 04:21:47;;;;;;;3.50;3.00;;;13.70;70.10;;;;;;4983781;28;20218;-91
2021/05/29 04:24:13;;;;;;;3.40;3.10;;;13.60;70.70;;;;;;4985184;28;20178;-91
2021/05/29 04:26:38;;;;;;;3.53;3.20;;;13.60;71.00;;;;;;4968746;28;20189;-91
2021/05/29 04:29:04;;;;;;;3.53;3.20;;;13.60;70.50;;;;;;4967748;28;20203;-91
2021/05/29 04:31:30;;;;;;;3.80;3.13;;;13.60;70.30;;;;;;4968643;28;20203;-91
2021/05/29 04:33:56;;;;;;;6.10;2.90;;;13.70;70.20;;;;;;4984140;28;20201;-91
2021/05/29 04:36:21;;;;;;;3.40;3.10;;;13.70;69.60;;;;;;4985752;28;20630;-90
2021/05/29 04:38:47;;;;;;;3.70;3.03;;;13.60;69.80;;;;;;4983350;28;20190;-91
2021/05/29 04:41:13;;;;;;;3.33;3.03;;;13.50;70.70;;;;;;4985720;28;20228;-91
2021/05/29 04:43:38;;;;;;;3.70;3.40;;;13.50;71.00;;;;;;4986023;28;20175;-91
2021/05/29 04:46:04;;;;;;;3.93;3.10;;;13.40;70.80;;;;;;5007098;28;20189;-91
2021/05/29 04:48:30;;;;;;;4.83;3.00;;;13.40;70.60;;;;;;4995093;28;20178;-92
2021/05/29 04:51:15;;;;;;;3.70;3.40;;;13.40;70.90;;;;;;4988696;28;20279;-92
2021/05/29 04:53:43;;;;;;;3.33;3.03;;;13.30;71.30;;;;;;5004792;28;20170;-92
2021/05/29 04:56:13;;;;;;;3.30;3.00;;;13.30;71.50;;;;;;4975890;28;20225;-92
2021/05/29 04:58:39;;;;;;;3.87;2.80;;;13.10;71.70;;;;;;4968253;28;20205;-92
2021/05/29 05:01:06;;;;;;;3.17;2.97;;;13.10;72.30;;;;;;4970188;28;20221;-92
2021/05/29 05:03:32;;;;;;;4.43;3.10;;;13.10;72.30;;;;;;4971586;28;20259;-92
2021/05/29 05:05:58;;;;;;;2.93;2.73;;;13.10;71.80;;;;;;5005315;28;20668;-92
2021/05/29 05:08:24;;;;;;;3.10;2.80;;;13.10;71.10;;;;;;4988235;28;20193;-91
2021/05/29 05:10:51;;;;;;;4.90;3.50;;;13.00;71.80;;;;;;4987428;28;20216;-91
2021/05/29 05:13:18;;;;;;;4.23;3.33;;;13.00;71.50;;;;;;4971594;28;20193;-91
2021/05/29 05:15:44;;;;;;;3.80;3.20;;;13.00;72.10;;;;;;5004276;28;20258;-90
2021/05/29 05:18:09;;;;;;;3.77;2.87;;;13.10;71.50;;;;;;5002684;28;20197;-90
2021/05/29 05:20:37;;;;;;;3.53;3.10;;;13.10;71.40;;;;;;5002894;28;20231;-89
2021/05/29 05:23:04;;;;;;;3.00;2.80;;;13.10;71.60;;;;;;4984200;28;20205;-90
2021/05/29 05:25:30;;;;;;;3.87;3.07;;;13.20;71.70;;;;;;4967542;28;20189;-90
2021/05/29 05:27:56;;;;;;;3.50;2.80;;;13.20;71.40;;;;;;4983198;28;20194;-90
2021/05/29 05:30:22;;;;;;;5.37;3.00;;;13.20;71.50;;;;;;4984465;28;20253;-90
2021/05/29 05:32:48;;;;;;;3.50;3.20;;;13.20;71.80;;;;;;4984531;28;20191;-90
2021/05/29 05:35:16;;;;;;;3.80;3.33;;;13.10;71.90;;;;;;4985045;28;20193;-90
2021/05/29 05:37:42;;;;;;;3.10;2.90;;;13.20;71.40;;;;;;4987084;28;20203;-90
2021/05/29 05:40:09;;;;;;;3.43;3.13;;;13.30;71.30;;;;;;4995754;28;20265;-90
2021/05/29 05:42:37;;;;;;;3.67;3.10;;;13.30;71.40;;;;;;5001146;28;20181;-89
2021/05/29 05:45:05;;;;;;;3.47;3.17;;;13.40;70.80;;;;;;4972401;28;20734;-90
2021/05/29 05:47:31;;;;;;;3.70;2.67;;;13.50;71.00;;;;;;5006961;28;20201;-90
2021/05/29 05:49:57;;;;;;;3.87;3.00;;;13.60;70.20;;;;;;5019925;28;20249;-89
2021/05/29 05:52:23;;;;;;;4.17;3.13;;;13.60;69.50;;;;;;5021212;28;20173;-88
2021/05/29 05:54:49;;;;;;;3.20;2.90;;;13.50;70.20;;;;;;5010123;28;20188;-90
2021/05/29 05:57:15;;;;;;;3.37;3.07;;;13.60;70.40;;;;;;5006800;28;20196;-90
2021/05/29 05:59:42;;;;;;;4.27;3.40;;;13.70;70.00;;;;;;5005904;28;20204;-90
2021/05/29 06:02:08;;;;;;;3.53;2.90;;;13.70;70.80;;;;;;5007538;28;20644;-90
2021/05/29 06:04:34;;;;;;;3.43;3.13;;;13.60;70.00;;;;;;5007036;28;20173;-90
2021/05/29 06:07:00;;;;;;;3.60;3.30;;;13.70;70.10;;;;;;5005713;28;20249;-90
2021/05/29 06:09:28;;;;;;;3.50;3.20;;;13.90;69.70;;;;;;5008557;28;20182;-90
2021/05/29 06:11:53;;;;;;;6.27;3.43;;;13.80;69.30;;;;;;4981899;28;20699;-90
2021/05/29 06:19:48;;;;;;;4.57;3.23;;;14.10;68.70;;;;;;5009482;28;20196;-90
2021/05/29 06:22:14;;;;;;;5.00;3.10;;;14.00;69.10;;;;;;5009652;28;20178;-89
2021/05/29 06:24:40;;;;;;;3.10;2.90;;;14.10;69.20;;;;;;5010088;28;20177;-90
2021/05/29 06:27:06;;;;;;;3.80;3.40;;;14.20;69.20;;;;;;4990765;28;20302;-90
2021/05/29 06:29:32;;;;;;;4.00;3.10;;;14.40;68.50;;;;;;4990705;28;20712;-89
2021/05/29 06:31:58;;;;;;;3.80;3.40;;;14.50;69.00;;;;;;5008809;28;20289;-90
2021/05/29 06:34:24;;;;;;;4.73;3.60;;;14.50;67.90;;;;;;4985484;28;20183;-90
2021/05/29 06:36:50;;;;;;;3.57;3.23;;;14.60;68.30;;;;;;5003981;28;20255;-90
2021/05/29 06:39:17;;;;;;;3.30;3.00;;;14.70;67.80;;;;;;5002728;28;20182;-90
2021/05/29 06:41:43;;;;;;;3.77;3.47;;;14.80;67.30;;;;;;5002744;28;20218;-90
2021/05/29 06:44:10;;;;;;;4.60;3.20;;;14.80;65.70;;;;;;5004654;28;20179;-90
2021/05/29 06:46:36;;;;;;;4.03;3.20;;;14.90;67.30;;;;;;5004884;28;20238;-90
2021/05/29 06:49:03;;;;;;;3.60;3.30;;;15.00;65.40;;;;;;5003696;28;20183;-90
2021/05/29 06:51:53;;;;;;;3.40;2.87;;;15.10;65.90;;;;;;5003482;28;20734;-90
2021/05/29 06:54:37;;;;;;;7.53;3.30;;;15.30;64.30;;;;;;4988678;28;20604;-91
2021/05/29 06:59:48;;;;;;;4.80;3.10;;;15.60;64.40;;;;;;5011881;28;20173;-90
2021/05/29 07:02:15;;;;;;;13.47;4.37;;;15.70;64.20;;;;;;5007193;28;20182;-90
2021/05/29 07:04:40;;;;;;;3.00;2.80;;;15.80;62.50;;;;;;5005913;28;20627;-92
2021/05/29 07:07:06;;;;;;;5.80;3.20;;;15.90;59.70;;;;;;5004548;28;20239;-91
2021/05/29 07:09:33;;;;;;;5.77;3.80;;;15.90;63.10;;;;;;5008410;28;20206;-91
2021/05/29 07:11:59;;;;;;;3.87;3.20;;;16.00;63.70;;;;;;5008668;28;20229;-90
2021/05/29 07:14:25;;;;;;;3.77;3.47;;;16.00;62.20;;;;;;5006863;28;20191;-91
2021/05/29 07:16:53;;;;;;;3.30;3.00;;;16.00;63.90;;;;;;5007487;28;20204;-91
2021/05/29 07:19:20;;;;;;;4.10;3.30;;;16.00;62.80;;;;;;5006551;28;20197;-91
2021/05/29 07:21:48;;;;;;;8.17;3.53;;;16.00;63.40;;;;;;5006513;28;20233;-89
2021/05/29 07:24:14;;;;;;;5.47;3.67;;;16.20;63.20;;;;;;5008201;28;20272;-89
2021/05/29 07:26:40;;;;;;;3.20;2.73;;;16.20;61.90;;;;;;5007001;28;20187;-88
2021/05/29 07:29:06;;;;;;;12.97;4.17;;;16.30;61.20;;;;;;4989653;28;20205;-91
2021/05/29 07:31:32;;;;;;;3.73;3.00;;;16.40;61.00;;;;;;4988859;28;20233;-91
2021/05/29 07:33:58;;;;;;;3.97;2.80;;;16.50;61.60;;;;;;5007808;28;20190;-89
2021/05/29 07:36:24;;;;;;;13.93;3.93;;;16.60;59.80;;;;;;5004369;28;20185;-91
2021/05/29 07:38:50;;;;;;;6.27;4.03;;;16.70;59.60;;;;;;5005023;28;20205;-92
2021/05/29 07:41:16;;;;;;;3.17;2.87;;;16.90;58.70;;;;;;5004928;28;20232;-92
2021/05/29 07:43:46;;;;;;;5.13;3.23;;;17.10;58.90;;;;;;4969313;28;20214;-92
2021/05/29 07:46:12;;;;;;;3.53;2.67;;;17.20;59.00;;;;;;4986821;28;20242;-92
2021/05/29 07:48:38;;;;;;;3.10;2.90;;;17.30;58.10;;;;;;4969024;28;20458;-92
2021/05/29 07:51:05;;;;;;;3.30;2.47;;;17.50;57.30;;;;;;4982666;28;20244;-92
2021/05/29 07:53:31;;;;;;;2.77;2.57;;;17.50;54.20;;;;;;5025119;28;20182;-90
2021/05/29 07:55:58;;;;;;;3.20;2.90;;;17.60;53.60;;;;;;5008440;28;20185;-92
2021/05/29 07:58:24;;;;;;;2.87;2.67;;;17.60;53.30;;;;;;4990891;28;20196;-92
2021/05/29 08:00:51;;;;;;;2.93;2.60;;;17.60;54.80;;;;;;5010800;23;20225;-88
2021/05/29 08:03:22;;;;;;;3.40;3.10;;;17.60;55.60;;;;;;5019252;28;20188;-88
2021/05/29 08:05:50;;;;;;;3.57;2.90;;;17.70;56.90;;;;;;5013660;28;20692;-86
2021/05/29 08:08:16;;;;;;;3.63;2.97;;;17.90;55.50;;;;;;5013782;28;20177;-87
2021/05/29 08:10:44;;;;;;;3.35;3.05;;;18.10;53.90;;;;;;5010840;28;20207;-87
2021/05/29 08:13:10;;;;;;;3.00;2.80;;;18.10;52.80;;;;;;5013757;28;20179;-87
2021/05/29 08:15:36;;;;;;;3.37;2.60;;;18.40;50.90;;;;;;4996855;28;20213;-86
2021/05/29 08:18:01;;;;;;;3.07;2.77;;;18.50;52.20;;;;;;5014703;28;20178;-87
2021/05/29 08:20:27;;;;;;;3.50;3.20;;;18.50;52.90;;;;;;4998872;28;20226;-87
2021/05/29 08:22:53;;;;;;;4.30;3.60;;;18.50;52.30;;;;;;5015929;28;20191;-87
2021/05/29 08:25:18;;;;;;;3.15;2.85;;;18.60;52.80;;;;;;5014722;28;20196;-87
2021/05/29 08:27:44;;;;;;;9.40;3.17;;;18.70;52.10;;;;;;5015613;28;20179;-86
2021/05/29 08:30:11;;;;;;;5.22;2.88;;;18.70;52.10;;;;;;4983055;28;20210;-86
2021/05/29 08:32:36;;;;;;;3.30;3.00;;;18.90;51.50;;;;;;4996529;28;20654;-87
2021/05/29 08:35:04;;;;;;;3.13;2.75;;;19.00;51.70;;;;;;4997417;28;20232;-86
2021/05/29 08:37:30;;;;;;;3.38;3.08;;;19.10;50.90;;;;;;5016812;28;20272;-85
2021/05/29 08:39:56;;;;;;;3.72;2.80;;;19.20;49.90;;;;;;5015279;28;20779;-87
2021/05/29 08:42:22;;;;;;;3.30;2.95;;;19.00;51.60;;;;;;5016281;28;20682;-86
2021/05/29 08:44:47;;;;;;;3.95;2.78;;;19.00;51.10;;;;;;5016666;28;20240;-86
2021/05/29 08:47:13;;;;;;;7.82;2.95;;;19.00;49.60;;;;;;4994778;28;20192;-88
2021/05/29 08:49:39;;;;;;;3.75;2.70;;;19.20;50.00;;;;;;5014419;28;20180;-88
2021/05/29 08:52:07;;;;;;;5.18;2.72;;;19.10;48.60;;;;;;5016563;28;20583;-91
2021/05/29 08:54:33;;;;;;;3.83;2.88;;;19.10;50.00;;;;;;4985089;28;20651;-88
2021/05/29 08:56:59;;;;;;;10.35;4.85;;;19.30;49.50;;;;;;5007425;28;20195;-89
2021/05/29 08:59:25;;;;;;;5.30;2.78;;;19.60;46.80;;;;;;5016303;28;20193;-88
2021/05/29 09:01:52;;;;;;;9.00;4.03;;;19.70;45.30;;;;;;5015687;28;20219;-88
2021/05/29 09:04:18;;;;;;;3.38;2.78;;;19.80;45.70;;;;;;5017886;28;20182;-88
2021/05/29 09:06:46;;;;;;;3.20;2.90;;;19.80;44.70;;;;;;5018255;28;20628;-89
2021/05/29 09:09:13;;;;;;;3.60;2.75;;;19.80;46.10;;;;;;5003797;28;20675;-88
2021/05/29 09:11:49;;;;;;;2.83;2.55;;;20.00;45.50;;;;;;5025080;28;20236;-88
2021/05/29 09:14:22;;;;;;;4.03;3.00;;;20.20;43.80;;;;;;5029287;28;20188;-88
2021/05/29 09:16:59;;;;;;;3.10;2.80;;;20.20;43.00;;;;;;5036069;28;20652;-88
2021/05/29 09:19:25;;;;;;;3.45;3.15;;;20.40;43.40;;;;;;5037184;28;20189;-88
2021/05/29 09:21:51;;;;;;;3.33;2.90;;;20.40;42.60;;;;;;5014905;28;20298;-87
2021/05/29 09:24:18;;;;;;;2.67;2.47;;;20.50;41.90;;;;;;5018464;28;20186;-88
2021/05/29 09:26:53;;;;;;;3.95;2.55;;;20.60;42.20;;;;;;4986283;28;20297;-88
2021/05/29 09:29:30;;;;;;;3.00;2.70;;;20.80;42.50;;;;;;4998718;28;20174;-89
2021/05/29 09:31:58;;;;;;;2.60;2.40;;;20.90;41.70;;;;;;4998269;28;20608;-88
2021/05/29 09:34:54;;;;;;;11.77;3.67;;;20.80;41.10;;;;;;5013324;28;20189;-88
2021/05/29 09:37:26;;;;;;;4.00;2.97;;;21.00;40.40;;;;;;5007647;28;20253;-88
2021/05/29 09:39:54;;;;;;;2.90;2.50;;;21.20;39.20;;;;;;5016975;28;20198;-88
2021/05/29 09:42:27;;;;;;;2.70;2.50;;;21.40;38.00;;;;;;5016469;28;20186;-88
2021/05/29 09:44:53;;;;;;;3.42;3.13;;;21.50;38.10;;;;;;5015898;28;20189;-88
2021/05/29 09:47:19;;;;;;;3.13;2.92;;;21.50;41.20;;;;;;5016368;28;20178;-88
2021/05/29 09:49:56;;;;;;;2.70;2.50;;;21.50;41.70;;;;;;4999003;28;20325;-88
2021/05/29 09:52:28;;;;;;;2.95;2.75;;;21.40;42.10;;;;;;5016829;28;20640;-88
2021/05/29 09:54:57;;;;;;;3.30;3.00;;;21.60;40.80;;;;;;5016873;28;20173;-88
2021/05/29 09:57:22;;;;;;;4.47;3.50;;;21.70;41.40;;;;;;5016600;28;20181;-88
2021/05/29 10:00:04;;;;;;;2.85;2.65;;;21.70;40.80;;;;;;5002064;28;20261;-88
2021/05/29 10:02:30;;;;;;;3.22;2.92;;;21.60;40.30;;;;;;5001691;28;20166;-88
2021/05/29 10:04:56;;;;;;;3.10;2.90;;;21.30;41.30;;;;;;5016414;28;20666;-88
2021/05/29 10:07:24;;;;;;;3.20;2.90;;;21.50;41.00;;;;;;5016579;28;20173;-88
2021/05/29 10:09:50;;;;;;;2.95;2.70;;;21.10;41.30;;;;;;5016174;28;20170;-88
2021/05/29 10:12:16;;;;;;;3.13;2.90;;;21.00;41.60;;;;;;5017097;28;20189;-88
2021/05/29 10:14:43;;;;;;;6.43;3.58;;;21.00;42.20;;;;;;5016961;28;20182;-89
2021/05/29 10:17:13;;;;;;;3.13;2.92;;;21.40;40.50;;;;;;5018936;28;20182;-89
2021/05/29 10:19:41;;;;;;;4.35;3.20;;;21.30;40.40;;;;;;5016915;28;20183;-88
2021/05/29 10:22:12;;;;;;;3.28;2.97;;;21.10;40.60;;;;;;5015515;28;20205;-88
2021/05/29 10:24:39;;;;;;;3.58;3.10;;;21.10;40.80;;;;;;4998930;28;20205;-88
2021/05/29 10:27:24;;;;;;;3.40;3.10;;;21.00;40.30;;;;;;4994874;28;20288;-88
2021/05/29 10:29:54;;;;;;;2.90;2.70;;;21.40;39.20;;;;;;4977371;28;20686;-88
2021/05/29 10:32:20;;;;;;;3.97;3.28;;;21.60;39.00;;;;;;5011056;28;20186;-88
2021/05/29 10:34:58;;;;;;;2.90;2.70;;;21.20;39.60;;;;;;5014134;28;20170;-88
2021/05/29 10:37:38;;;;;;;3.67;2.83;;;20.60;40.50;;;;;;4998209;28;20178;-89
2021/05/29 10:40:24;;;;;;;3.15;2.88;;;20.40;41.60;;;;;;4999343;28;20213;-88
2021/05/29 10:43:18;;;;;;;3.05;2.85;;;20.90;41.60;;;;;;5017189;28;20174;-88
2021/05/29 10:45:50;;;;;;;3.33;3.03;;;21.60;40.70;;;;;;4983476;28;20278;-88
2021/05/29 10:48:23;;;;;;;3.10;2.80;;;22.20;39.50;;;;;;5008100;28;20229;-87
2021/05/29 10:51:03;;;;;;;3.13;2.92;;;22.30;37.90;;;;;;4996581;28;20220;-87
2021/05/29 10:53:49;;;;;;;3.22;3.00;;;22.60;37.40;;;;;;4996934;28;20199;-86
2021/05/29 10:56:15;;;;;;;4.63;3.08;;;22.80;36.80;;;;;;5015843;28;20254;-90
2021/05/29 10:58:59;;;;;;;3.03;2.80;;;22.40;36.90;;;;;;5015232;28;20263;-89
2021/05/29 11:01:45;;;;;;;3.78;2.60;;;22.60;35.90;;;;;;4995172;28;20218;-89
2021/05/29 11:04:17;;;;;;;3.88;3.08;;;22.80;34.90;;;;;;4981398;28;20205;-89
2021/05/29 11:07:04;;;;;;;3.33;2.85;;;23.40;34.80;;;;;;4994466;28;20194;-90
2021/05/29 11:09:30;;;;;;;3.47;3.20;;;23.10;34.40;;;;;;4996038;28;20192;-89
2021/05/29 11:12:00;;;;;;;3.08;2.55;;;23.10;35.20;;;;;;4997162;28;20227;-88
2021/05/29 11:14:27;;;;;;;4.40;2.63;;;23.30;35.20;;;;;;5012210;28;20209;-89
2021/05/29 11:16:56;;;;;;;3.88;2.60;;;23.40;34.10;;;;;;5017685;28;20768;-89
2021/05/29 11:19:35;;;;;;;2.70;2.50;;;23.40;33.60;;;;;;5017335;28;20254;-90
2021/05/29 11:22:18;;;;;;;2.75;2.55;;;23.30;34.00;;;;;;5024719;28;20236;-90
2021/05/29 11:24:52;;;;;;;2.83;2.63;;;23.40;35.10;;;;;;5023480;28;20162;-91
2021/05/29 11:27:22;;;;;;;2.78;2.50;;;23.70;35.00;;;;;;5014837;28;20170;-91
2021/05/29 11:29:53;;;;;;;2.88;2.67;;;23.70;34.60;;;;;;5015766;28;20177;-90
2021/05/29 11:35:40;;;;;;;2.90;2.70;;;23.70;34.80;;;;;;5017856;28;20193;-90
2021/05/29 11:38:26;;;;;;;2.95;2.58;;;24.50;33.90;;;;;;5019694;28;20183;-90
2021/05/29 11:40:59;;;;;;;2.83;2.63;;;24.90;33.70;;;;;;5023326;28;20783;-92
2021/05/29 11:43:36;;;;;;;2.88;2.67;;;25.10;33.10;;;;;;5017955;28;20190;-91
2021/05/29 11:46:07;;;;;;;3.20;3.00;;;25.40;31.50;;;;;;4986726;28;20297;-89
2021/05/29 11:48:38;;;;;;;3.47;3.05;;;24.50;33.40;;;;;;4978502;28;20190;-90
2021/05/29 11:53:51;;;;;;;3.17;2.60;;;24.70;33.30;;;;;;4997006;28;20170;-91
2021/05/29 11:56:38;;;;;;;2.58;2.35;;;24.60;32.90;;;;;;4978220;28;20174;-91
2021/05/29 11:59:06;;;;;;;2.80;2.60;;;24.80;33.90;;;;;;4986691;28;20665;-91
2021/05/29 12:01:35;;;;;;;4.78;2.88;;;25.10;31.80;;;;;;4996573;28;20230;-91
2021/05/29 12:04:06;;;;;;;3.55;2.40;;;25.30;31.40;;;;;;4995710;28;20693;-90
2021/05/29 12:07:02;;;;;;;2.65;2.45;;;25.30;30.80;;;;;;4977358;28;20186;-91
2021/05/29 12:09:31;;;;;;;2.30;2.20;;;25.40;31.10;;;;;;4995290;28;20487;-91
2021/05/29 12:12:00;;;;;;;3.28;2.80;;;24.90;30.80;;;;;;4995241;28;20255;-91
2021/05/29 12:14:30;;;;;;;2.58;2.30;;;24.40;31.70;;;;;;4997462;28;20190;-90
2021/05/29 12:16:59;;;;;;;3.17;2.50;;;24.50;31.60;;;;;;4996192;28;20237;-88
2021/05/29 12:19:29;;;;;;;2.70;2.50;;;24.80;30.40;;;;;;4994821;28;20257;-91
2021/05/29 12:22:00;;;;;;;2.40;2.20;;;25.50;30.20;;;;;;4976428;28;20210;-91
2021/05/29 12:24:27;;;;;;;4.72;4.25;;;25.60;29.00;;;;;;4993709;28;20565;-91
2021/05/29 12:26:54;;;;;;;3.40;2.90;;;25.70;29.20;;;;;;4993077;28;20253;-91
2021/05/29 12:29:21;;;;;;;2.47;2.33;;;26.00;28.70;;;;;;4992691;28;20178;-91
2021/05/29 12:31:56;;;;;;;2.30;2.20;;;25.70;28.40;;;;;;4993346;28;20229;-90
2021/05/29 12:34:24;;;;;;;2.38;2.28;;;25.60;28.40;;;;;;4996205;28;20186;-90
2021/05/29 12:36:57;;;;;;;2.47;2.00;;;25.60;28.50;;;;;;4992926;28;20185;-91
2021/05/29 12:39:57;;;;;;;2.63;2.30;;;25.90;27.80;;;;;;4995691;28;20197;-90
2021/05/29 12:42:49;;;;;;;3.15;2.75;;;26.20;27.40;;;;;;4995461;28;20178;-91
2021/05/29 12:45:16;;;;;;;3.75;2.97;;;26.90;27.90;;;;;;4981815;28;20174;-89
2021/05/29 12:48:00;;;;;;;3.53;2.88;;;27.10;28.70;;;;;;4995677;28;20597;-88
2021/05/29 12:50:31;;;;;;;3.40;2.58;;;27.00;27.90;;;;;;5001331;28;20225;-89
2021/05/29 12:53:17;;;;;;;2.53;2.33;;;27.00;27.80;;;;;;4997544;28;20221;-90
2021/05/29 12:55:45;;;;;;;2.97;2.67;;;26.70;27.30;;;;;;4997743;28;20193;-89
2021/05/29 12:58:19;;;;;;;3.83;3.53;;;26.60;26.90;;;;;;5018889;28;20189;-89
2021/05/29 13:09:23;;;;;;;2.45;2.25;;;26.40;26.50;;;;;;4998343;28;20624;-89
2021/05/29 13:11:49;;;;;;;3.22;2.92;;;26.40;26.60;;;;;;4978298;28;20238;-88
2021/05/29 13:14:18;;;;;;;3.53;3.22;;;27.00;27.00;;;;;;4997214;28;20178;-89
2021/05/29 13:16:50;;;;;;;3.13;2.83;;;27.50;26.40;;;;;;4976919;28;20194;-89
2021/05/29 13:19:17;;;;;;;2.03;1.92;;;27.30;25.60;;;;;;4995940;28;20186;-89